Аэропорт
Шымкент (UAII)

 UAII / CIT
ЗЦ Центральная Азия
Шымкент (UAII)
Шымкент (UAII)
 42.36420, 69.47890  / 1385 ft

 UAII 201130Z 07002MPS CAVOK 11/05 Q1019 R28/0///70 NOSIG RMK QFE727/0969
 TAF UAII 200505Z 2006/2106 23003G08MPS 6000 SCT050CB OVC100 TX13/2009Z TN03/2102Z TEMPO 2006/2012 19005G10MPS 3100 -SHRA BR SCT011 BKN033CB TEMPO 2012/2018 09003G08MPS 1500 BR FU SCT011 TEMPO 2018/2103 1000 BR FU SCT005
показать схемы
Название сценария Тип сценария Flight Simulator 9 Flight Simulator X Prepar3D v2 Prepar3D v3 Prepar3D v4 Prepar3D v5 xPlane
Recommended scenery for FS9 бесплатный
Recommended scenery for FSX бесплатный


2020 © VATRUS division (Privacy Policy)